Time;durP1;ratioP1;P1;durP2;ratioP2;P2;SDS_P1;SDS_P2;PMS_P1;PMS_P2;Temp;Humidity;BMP_temperature;BMP_pressure;BME280_temperature;BME280_humidity;BME280_pressure;Samples;Min_cycle;Max_cycle;Signal;HPM_P1;HPM_P2
2023/04/18 00:00:51;;;;;;;10.77;4.85;;;;;;;6.18;100.00;102146.22;6074062;28;20091;-71
2023/04/18 00:03:48;;;;;;;12.80;5.23;;;;;;;6.27;100.00;102145.72;6074058;28;20033;-70
2023/04/18 00:06:45;;;;;;;12.50;5.18;;;;;;;6.27;100.00;102162.38;6086932;28;20919;-70
2023/04/18 00:09:40;;;;;;;11.65;5.00;;;;;;;6.15;100.00;102143.75;6073965;28;20498;-70
2023/04/18 00:12:36;;;;;;;10.90;5.22;;;;;;;6.33;100.00;102156.75;6073618;28;20037;-72
2023/04/18 00:15:33;;;;;;;10.07;4.63;;;;;;;6.25;100.00;102158.13;6074801;28;20037;-70
2023/04/18 00:18:28;;;;;;;10.63;5.18;;;;;;;6.27;100.00;102156.25;6095288;28;20256;-70
2023/04/18 00:21:24;;;;;;;12.77;5.10;;;;;;;6.40;100.00;102152.03;6078168;28;20087;-71
2023/04/18 00:24:19;;;;;;;11.75;4.93;;;;;;;6.16;100.00;102148.09;6072480;28;20040;-69
2023/04/18 00:27:16;;;;;;;12.43;4.73;;;;;;;6.13;100.00;102154.38;6079459;28;20029;-70
2023/04/18 00:30:12;;;;;;;11.57;5.68;;;;;;;6.22;100.00;102151.25;6073684;28;20613;-71
2023/04/18 00:33:07;;;;;;;9.88;4.35;;;;;;;6.30;100.00;102164.00;6072715;28;20132;-70
2023/04/18 00:36:03;;;;;;;10.27;4.57;;;;;;;6.30;100.00;102164.00;6072741;28;20037;-71
2023/04/18 00:38:58;;;;;;;9.98;4.60;;;;;;;6.28;100.00;102161.44;6076793;28;20116;-70
2023/04/18 00:41:54;;;;;;;13.80;5.27;;;;;;;6.22;100.00;102164.41;6076006;28;20029;-71
2023/04/18 00:44:49;;;;;;;11.37;5.00;;;;;;;6.20;100.00;102165.41;6072255;28;20037;-71
2023/04/18 00:47:44;;;;;;;12.50;5.83;;;;;;;6.10;100.00;102156.31;6073941;28;20463;-71
2023/04/18 00:50:40;;;;;;;12.33;5.80;;;;;;;6.15;100.00;102149.00;6072951;28;20037;-71
2023/04/18 00:53:35;;;;;;;12.55;5.82;;;;;;;6.19;100.00;102154.03;6072439;28;20045;-71
2023/04/18 00:56:31;;;;;;;14.87;5.83;;;;;;;6.19;100.00;102150.56;6072533;28;20037;-73
2023/04/18 00:59:26;;;;;;;11.30;5.37;;;;;;;6.07;100.00;102153.84;6055469;28;20628;-72
2023/04/18 01:02:21;;;;;;;12.13;5.40;;;;;;;6.05;100.00;102148.66;6055542;28;20510;-71
2023/04/18 01:05:17;;;;;;;12.23;6.60;;;;;;;6.13;100.00;102143.84;6072373;28;20464;-70
2023/04/18 01:08:12;;;;;;;13.75;6.53;;;;;;;6.06;100.00;102147.72;6074073;28;20288;-71
2023/04/18 01:11:08;;;;;;;18.17;6.55;;;;;;;5.94;100.00;102146.59;6072500;28;20034;-70
2023/04/18 01:14:04;;;;;;;12.00;6.17;;;;;;;5.94;100.00;102146.59;6072154;28;20037;-71
2023/04/18 01:17:00;;;;;;;13.88;6.15;;;;;;;6.04;100.00;102164.53;6072305;28;20123;-70
2023/04/18 01:19:55;;;;;;;18.52;6.32;;;;;;;6.05;100.00;102150.44;6071860;28;20502;-71
2023/04/18 01:22:51;;;;;;;12.43;5.47;;;;;;;5.92;100.00;102147.63;6073089;28;20038;-70
2023/04/18 01:25:50;;;;;;;14.63;6.38;;;;;;;5.82;100.00;102144.56;6054480;28;20745;-70
2023/04/18 01:28:45;;;;;;;11.82;5.93;;;;;;;5.89;100.00;102156.53;6078583;28;20033;-70
2023/04/18 01:31:40;;;;;;;18.87;6.93;;;;;;;5.81;100.00;102148.16;6072159;28;20502;-72
2023/04/18 01:34:36;;;;;;;17.77;7.73;;;;;;;5.69;100.00;102148.78;6071938;28;20037;-71
2023/04/18 01:37:31;;;;;;;15.17;7.50;;;;;;;5.69;100.00;102158.44;6072411;28;20033;-70
2023/04/18 01:40:26;;;;;;;16.43;6.83;;;;;;;5.61;100.00;102145.69;6076512;28;20034;-71
2023/04/18 01:43:22;;;;;;;16.17;7.25;;;;;;;5.54;100.00;102133.78;6073785;28;20041;-71
2023/04/18 01:46:17;;;;;;;15.50;7.47;;;;;;;5.54;100.00;102133.78;6072076;28;20109;-70
2023/04/18 01:49:12;;;;;;;18.07;8.67;;;;;;;5.66;100.00;102153.34;6072626;28;20463;-71
2023/04/18 01:52:07;;;;;;;17.70;7.57;;;;;;;5.54;100.00;102123.28;6072748;28;20427;-70
2023/04/18 01:55:04;;;;;;;18.33;7.33;;;;;;;5.75;100.00;102132.69;6071672;28;20064;-72
2023/04/18 01:58:00;;;;;;;17.42;7.55;;;;;;;5.61;100.00;102153.59;6072759;28;20033;-72
2023/04/18 02:00:56;;;;;;;21.10;7.40;;;;;;;5.75;100.00;102145.84;6071875;28;20049;-71
2023/04/18 02:03:51;;;;;;;18.63;7.45;;;;;;;5.60;100.00;102128.19;6074185;28;20045;-71
2023/04/18 02:06:47;;;;;;;19.97;8.00;;;;;;;5.67;100.00;102134.84;6077310;28;20031;-72
2023/04/18 02:09:42;;;;;;;17.37;7.13;;;;;;;5.62;100.00;102136.88;6076475;28;20033;-72
2023/04/18 02:12:37;;;;;;;20.50;8.87;;;;;;;5.59;100.00;102123.88;6077027;28;20041;-72
2023/04/18 02:15:33;;;;;;;18.33;8.37;;;;;;;5.67;100.00;102121.69;6075213;28;20103;-71
2023/04/18 02:18:29;;;;;;;19.70;8.30;;;;;;;5.69;100.00;102135.63;6076201;28;20075;-71
2023/04/18 02:21:24;;;;;;;19.38;9.00;;;;;;;5.73;100.00;102124.03;6076936;28;20038;-72
2023/04/18 02:24:19;;;;;;;17.80;7.53;;;;;;;5.74;100.00;102130.97;6075353;28;20056;-71
2023/04/18 02:27:17;;;;;;;23.53;8.87;;;;;;;5.44;100.00;102114.13;6076758;28;20041;-71
2023/04/18 02:30:12;;;;;;;21.23;9.25;;;;;;;5.56;100.00;102131.94;6076451;28;20026;-73
2023/04/18 02:33:07;;;;;;;19.13;8.90;;;;;;;5.50;100.00;102116.44;6075095;28;20095;-71
2023/04/18 02:36:03;;;;;;;22.53;9.17;;;;;;;5.60;100.00;102141.34;6075809;28;20044;-71
2023/04/18 02:38:58;;;;;;;23.88;9.90;;;;;;;5.47;100.00;102107.84;6075900;28;20148;-70
2023/04/18 02:41:54;;;;;;;24.77;9.53;;;;;;;5.55;100.00;102134.63;6085773;28;20070;-72
2023/04/18 02:44:49;;;;;;;26.08;9.90;;;;;;;5.47;100.00;102121.00;6086738;28;20064;-70
2023/04/18 02:47:44;;;;;;;27.17;11.50;;;;;;;5.41;100.00;102125.66;6089138;28;20029;-71
2023/04/18 02:50:40;;;;;;;23.27;9.63;;;;;;;5.52;100.00;102129.53;6076474;28;20040;-70
2023/04/18 02:53:35;;;;;;;24.87;9.70;;;;;;;5.57;100.00;102149.41;6075027;28;20037;-70
2023/04/18 02:56:30;;;;;;;20.47;9.23;;;;;;;5.50;100.00;102140.13;6075319;28;20120;-71
2023/04/18 02:59:26;;;;;;;24.53;9.70;;;;;;;5.46;100.00;102127.22;6082518;28;20548;-72
2023/04/18 03:02:21;;;;;;;25.03;9.30;;;;;;;5.61;100.00;102150.97;6075057;28;20037;-71
2023/04/18 03:05:16;;;;;;;22.00;10.10;;;;;;;5.46;100.00;102124.59;6075433;28;20041;-71
2023/04/18 03:08:11;;;;;;;26.73;10.30;;;;;;;5.50;100.00;102123.50;6083406;28;20032;-72
2023/04/18 03:11:07;;;;;;;22.33;9.57;;;;;;;5.56;100.00;102131.06;6079756;28;20048;-71
2023/04/18 03:14:02;;;;;;;19.87;8.93;;;;;;;5.62;100.00;102129.00;6073801;28;20041;-72
2023/04/18 03:16:57;;;;;;;17.90;8.20;;;;;;;5.59;100.00;102131.78;6074904;28;20088;-70
2023/04/18 03:19:53;;;;;;;21.43;9.43;;;;;;;5.61;100.00;102144.84;6075333;28;20121;-71
2023/04/18 03:22:48;;;;;;;22.43;9.40;;;;;;;5.62;100.00;102136.88;6075115;28;20029;-70
2023/04/18 03:25:43;;;;;;;23.73;9.00;;;;;;;5.53;100.00;102137.34;6073947;28;20288;-70
2023/04/18 03:28:39;;;;;;;22.07;9.33;;;;;;;5.52;100.00;102133.00;6075140;28;20029;-72
2023/04/18 03:31:34;;;;;;;18.65;9.10;;;;;;;5.65;100.00;102152.50;6074281;28;20049;-71
2023/04/18 03:34:30;;;;;;;19.20;8.03;;;;;;;5.53;100.00;102131.22;6073951;28;20037;-72
2023/04/18 03:37:25;;;;;;;20.37;8.70;;;;;;;5.59;100.00;102141.44;6074426;28;20290;-71
2023/04/18 03:40:21;;;;;;;20.73;9.27;;;;;;;5.60;100.00;102143.97;6074767;28;20029;-70
2023/04/18 03:43:18;;;;;;;19.33;7.77;;;;;;;5.75;100.00;102152.88;6073186;28;20095;-71
2023/04/18 03:46:14;;;;;;;20.63;8.43;;;;;;;5.66;100.00;102156.81;6074365;28;20036;-72
2023/04/18 03:49:09;;;;;;;23.65;9.02;;;;;;;5.63;100.00;102145.59;6074651;28;20029;-70
2023/04/18 03:52:04;;;;;;;20.07;8.70;;;;;;;5.53;100.00;102145.25;6074308;28;20048;-71
2023/04/18 03:54:59;;;;;;;20.10;9.50;;;;;;;5.63;100.00;102156.97;6073218;28;20113;-71
2023/04/18 03:57:57;;;;;;;20.03;8.47;;;;;;;5.57;100.00;102153.84;6074063;28;20502;-72
2023/04/18 04:00:52;;;;;;;19.83;9.80;;;;;;;5.67;100.00;102158.53;6073828;28;20061;-72
2023/04/18 04:03:47;;;;;;;23.27;8.43;;;;;;;5.63;100.00;102164.88;6073891;28;20112;-71
2023/04/18 04:06:43;;;;;;;19.07;8.00;;;;;;;5.69;100.00;102168.97;6073799;28;20083;-72
2023/04/18 04:09:38;;;;;;;19.13;8.20;;;;;;;5.67;100.00;102158.53;6058702;28;20509;-71
2023/04/18 04:12:34;;;;;;;18.63;8.40;;;;;;;5.69;100.00;102161.94;6080020;28;20029;-71
2023/04/18 04:15:30;;;;;;;20.67;8.23;;;;;;;5.70;100.00;102171.53;6060253;28;20025;-71
2023/04/18 04:18:29;;;;;;;21.55;8.93;;;;;;;5.67;100.00;102170.84;6074213;28;20044;-72
2023/04/18 04:21:25;;;;;;;22.42;8.80;;;;;;;5.62;100.00;102157.94;6073770;28;20486;-71
2023/04/18 04:24:21;;;;;;;23.02;9.32;;;;;;;5.58;100.00;102151.09;6072531;28;20107;-71
2023/04/18 04:27:17;;;;;;;16.92;7.93;;;;;;;5.69;100.00;102179.50;6073147;28;20033;-70
2023/04/18 04:30:13;;;;;;;19.27;8.45;;;;;;;5.63;100.00;102158.75;6073906;28;20048;-70
2023/04/18 04:33:08;;;;;;;19.30;9.20;;;;;;;5.77;100.00;102151.00;6073555;28;20033;-71
2023/04/18 04:36:05;;;;;;;18.43;7.90;;;;;;;5.68;100.00;102167.28;6072440;28;20283;-71
2023/04/18 04:39:03;;;;;;;19.73;8.15;;;;;;;5.64;100.00;102177.13;6073577;28;20029;-71
2023/04/18 04:42:00;;;;;;;22.50;8.77;;;;;;;5.69;100.00;102185.63;6072956;28;20029;-72
2023/04/18 04:44:55;;;;;;;19.05;7.57;;;;;;;5.64;100.00;102187.63;6072410;28;20041;-71
2023/04/18 04:47:51;;;;;;;19.90;8.47;;;;;;;5.67;100.00;102186.63;6073638;28;20044;-72
2023/04/18 04:50:57;;;;;;;19.48;7.82;;;;;;;5.62;100.00;102194.78;6073081;28;20048;-70
2023/04/18 04:53:52;;;;;;;17.10;8.55;;;;;;;5.61;100.00;102185.16;6059622;28;20033;-71
2023/04/18 04:56:47;;;;;;;20.70;9.30;;;;;;;5.68;100.00;102198.88;6072719;28;20048;-70
2023/04/18 04:59:42;;;;;;;19.30;8.43;;;;;;;5.64;100.00;102187.63;6073490;28;20045;-71
2023/04/18 05:02:38;;;;;;;15.70;7.80;;;;;;;5.69;100.00;102203.19;6072832;28;20427;-70
2023/04/18 05:05:33;;;;;;;16.93;6.97;;;;;;;5.64;100.00;102185.00;6072446;28;20037;-71
2023/04/18 05:08:29;;;;;;;17.10;7.80;;;;;;;5.64;100.00;102192.91;6073918;28;20041;-70
2023/04/18 05:11:25;;;;;;;18.30;8.30;;;;;;;5.60;100.00;102193.16;6100316;28;20037;-71
2023/04/18 05:14:20;;;;;;;20.63;9.40;;;;;;;5.61;100.00;102194.81;6086327;28;20161;-69
2023/04/18 05:17:16;;;;;;;15.90;7.53;;;;;;;5.60;100.00;102191.34;6071735;28;20033;-70
2023/04/18 05:20:11;;;;;;;21.27;9.27;;;;;;;5.75;100.00;102200.25;6073024;28;20029;-69
2023/04/18 05:23:06;;;;;;;18.30;8.53;;;;;;;5.62;100.00;102199.16;6073094;28;20334;-72
2023/04/18 05:26:03;;;;;;;20.73;9.50;;;;;;;5.60;100.00;102201.03;6072285;28;20033;-72
2023/04/18 05:28:58;;;;;;;17.27;7.65;;;;;;;5.64;100.00;102208.69;6073009;28;20038;-70
2023/04/18 05:31:54;;;;;;;18.80;8.77;;;;;;;5.61;100.00;102203.56;6072428;28;20045;-70
2023/04/18 05:34:49;;;;;;;17.33;7.15;;;;;;;5.78;100.00;102210.63;6068130;28;20041;-72
2023/04/18 05:37:45;;;;;;;18.08;8.15;;;;;;;5.72;100.00;102211.78;6075753;28;20029;-71
2023/04/18 05:40:41;;;;;;;15.87;7.40;;;;;;;5.80;100.00;102225.41;6077097;28;20033;-71
2023/04/18 05:43:36;;;;;;;19.75;8.20;;;;;;;5.75;100.00;102237.09;6075754;28;20680;-71
2023/04/18 05:46:31;;;;;;;18.27;7.37;;;;;;;5.70;100.00;102224.19;6075460;28;20033;-71
2023/04/18 05:49:27;;;;;;;16.65;7.78;;;;;;;5.76;100.00;102213.31;6076830;28;20502;-70
2023/04/18 05:52:24;;;;;;;15.10;7.77;;;;;;;5.66;100.00;102222.63;6077495;28;20041;-71
2023/04/18 05:55:19;;;;;;;17.38;7.95;;;;;;;5.66;100.00;102219.97;6076448;28;20116;-71
2023/04/18 05:58:14;;;;;;;18.13;8.90;;;;;;;5.67;100.00;102224.31;6076742;28;20037;-72
2023/04/18 06:01:10;;;;;;;16.43;7.03;;;;;;;5.67;100.00;102234.84;6076919;28;20028;-70
2023/04/18 06:04:07;;;;;;;15.55;7.43;;;;;;;5.58;100.00;102213.41;6076061;28;20038;-71
2023/04/18 06:07:02;;;;;;;15.52;7.30;;;;;;;5.78;100.00;102235.16;6076681;28;20431;-70
2023/04/18 06:09:57;;;;;;;18.53;7.97;;;;;;;5.83;100.00;102237.56;6062356;28;20032;-71
2023/04/18 06:12:53;;;;;;;17.23;7.27;;;;;;;5.88;100.00;102225.03;6076439;28;20356;-71
2023/04/18 06:15:48;;;;;;;18.60;7.70;;;;;;;5.89;100.00;102230.25;6074972;28;20033;-71
2023/04/18 06:18:43;;;;;;;19.20;8.73;;;;;;;5.99;100.00;102234.09;6075360;28;20068;-70
2023/04/18 06:21:40;;;;;;;17.97;7.97;;;;;;;6.05;100.00;102254.00;6084730;28;20038;-71
2023/04/18 06:24:36;;;;;;;15.63;7.43;;;;;;;6.15;100.00;102260.47;6075623;28;20042;-71
2023/04/18 06:27:31;;;;;;;15.95;7.38;;;;;;;6.16;100.00;102256.91;6080080;28;20040;-71
2023/04/18 06:30:26;;;;;;;16.83;7.67;;;;;;;6.18;100.00;102259.47;6075608;28;20098;-70
2023/04/18 06:33:22;;;;;;;18.20;7.80;;;;;;;6.16;100.00;102258.69;6075600;28;20134;-72
2023/04/18 06:36:17;;;;;;;16.60;7.43;;;;;;;6.22;100.00;102256.59;6075992;28;20022;-71
2023/04/18 06:39:13;;;;;;;14.10;7.20;;;;;;;6.12;100.00;102251.88;6076183;28;20052;-72
2023/04/18 06:42:08;;;;;;;21.67;8.53;;;;;;;6.07;99.73;102270.56;6076261;28;20033;-71
2023/04/18 06:45:05;;;;;;;16.33;6.70;;;;;;;6.20;100.00;102273.38;6074674;28;20037;-71
2023/04/18 06:48:02;;;;;;;18.33;7.50;;;;;;;6.11;99.59;102235.25;6075578;28;20029;-70
2023/04/18 06:50:57;;;;;;;17.08;7.80;;;;;;;6.36;99.47;102274.31;6075953;28;20471;-71
2023/04/18 06:53:53;;;;;;;21.47;8.77;;;;;;;6.33;99.41;102266.56;6075365;28;20049;-72
2023/04/18 06:56:48;;;;;;;22.53;10.17;;;;;;;6.42;98.84;102276.59;6075723;28;20028;-71
2023/04/18 06:59:43;;;;;;;17.20;8.03;;;;;;;6.31;97.95;102268.41;6074884;28;20041;-72
2023/04/18 07:02:39;;;;;;;20.73;8.60;;;;;;;6.38;98.15;102265.41;6074571;28;20041;-72
2023/04/18 07:05:35;;;;;;;17.48;7.10;;;;;;;6.53;98.58;102283.03;6074534;28;20455;-71
2023/04/18 07:08:33;;;;;;;17.45;7.68;;;;;;;6.53;98.00;102266.34;6074792;28;20045;-71
2023/04/18 07:11:28;;;;;;;17.67;7.60;;;;;;;6.64;98.98;102281.59;6083310;28;20549;-71
2023/04/18 07:14:24;;;;;;;17.13;8.10;;;;;;;6.40;98.18;102279.34;6072141;28;20038;-71
2023/04/18 07:17:19;;;;;;;15.98;7.70;;;;;;;6.43;98.49;102278.31;6074018;28;20188;-71
2023/04/18 07:20:15;;;;;;;16.15;7.38;;;;;;;6.41;98.03;102291.56;6075587;28;20474;-73
2023/04/18 07:23:10;;;;;;;16.98;7.63;;;;;;;6.40;98.61;102291.66;6075250;28;20449;-72
2023/04/18 07:26:06;;;;;;;19.27;8.55;;;;;;;6.47;98.10;102293.03;6078004;28;20044;-71
2023/04/18 07:29:01;;;;;;;19.17;7.85;;;;;;;6.44;97.86;102280.03;6081305;28;20083;-71
2023/04/18 07:31:57;;;;;;;15.63;7.07;;;;;;;6.39;97.78;102282.03;6075196;28;20034;-71
2023/04/18 07:34:53;;;;;;;16.08;7.97;;;;;;;6.50;97.25;102300.78;6078699;28;20072;-69
2023/04/18 07:37:48;;;;;;;17.55;8.50;;;;;;;6.65;97.19;102291.22;6096733;28;20033;-70
2023/04/18 07:40:44;;;;;;;16.73;8.00;;;;;;;6.65;95.43;102272.75;6074282;28;20429;-71
2023/04/18 07:43:39;;;;;;;16.75;7.95;;;;;;;7.03;95.75;102285.56;6072323;28;20045;-70
2023/04/18 07:46:35;;;;;;;16.13;7.50;;;;;;;7.12;92.96;102285.03;6084867;28;20025;-70
2023/04/18 07:49:30;;;;;;;16.33;6.40;;;;;;;6.97;92.14;102283.25;6077811;28;20283;-71
2023/04/18 07:52:25;;;;;;;13.43;6.57;;;;;;;6.96;91.46;102278.91;6081557;28;20044;-71
2023/04/18 07:55:20;;;;;;;14.53;6.50;;;;;;;7.07;91.11;102275.66;6077166;28;20609;-71
2023/04/18 07:58:16;;;;;;;12.00;5.73;;;;;;;7.56;89.22;102289.59;6074027;28;20493;-73
2023/04/18 08:01:14;;;;;;;14.98;8.10;;;;;;;7.68;87.60;102275.69;6077862;28;20025;-70
2023/04/18 08:04:09;;;;;;;13.85;6.05;;;;;;;8.12;86.40;102278.38;6072724;28;20034;-70
2023/04/18 08:07:04;;;;;;;10.13;5.15;;;;;;;8.31;84.34;102273.72;6073414;28;20060;-71
2023/04/18 08:10:00;;;;;;;10.10;5.25;;;;;;;8.34;84.15;102274.34;6073843;28;20064;-71
2023/04/18 08:12:55;;;;;;;11.13;5.20;;;;;;;8.57;82.86;102280.03;6086544;28;20072;-71
2023/04/18 08:15:50;;;;;;;10.00;5.00;;;;;;;8.50;83.47;102273.44;6073243;28;20318;-71
2023/04/18 08:18:46;;;;;;;13.87;5.97;;;;;;;8.93;80.97;102288.31;6081037;28;20461;-72
2023/04/18 08:21:41;;;;;;;13.55;5.20;;;;;;;9.16;80.10;102281.56;6074085;28;20029;-72
2023/04/18 08:24:37;;;;;;;12.50;5.20;;;;;;;9.32;78.56;102287.59;6073091;28;20030;-70
2023/04/18 08:27:32;;;;;;;12.30;5.85;;;;;;;9.21;76.95;102276.84;6073766;28;20061;-70
2023/04/18 08:30:28;;;;;;;9.70;5.13;;;;;;;9.64;75.85;102274.88;6073562;28;20100;-73
2023/04/18 08:33:23;;;;;;;12.15;5.20;;;;;;;9.44;76.48;102273.53;6072233;28;20029;-70
2023/04/18 08:36:20;;;;;;;12.85;5.50;;;;;;;9.30;75.59;102290.31;6073409;28;20025;-72
2023/04/18 08:39:15;;;;;;;10.00;4.80;;;;;;;9.64;74.54;102298.72;6073103;28;20108;-72
2023/04/18 08:42:18;;;;;;;11.05;5.47;;;;;;;9.61;72.87;102297.13;6073150;28;20037;-73
2023/04/18 08:45:13;;;;;;;10.55;5.15;;;;;;;9.46;74.52;102309.53;6072608;28;20041;-71
2023/04/18 08:48:15;;;;;;;12.88;4.90;;;;;;;9.56;74.09;102286.84;6073333;28;20108;-69
2023/04/18 08:51:11;;;;;;;13.23;6.20;;;;;;;9.51;73.52;102296.84;6072429;28;20046;-70
2023/04/18 08:54:06;;;;;;;12.45;5.35;;;;;;;9.54;74.56;102291.34;6071441;28;20568;-74
2023/04/18 08:57:06;;;;;;;9.52;5.25;;;;;;;9.58;73.30;102287.56;6061253;28;20038;-71
2023/04/18 09:00:06;;;;;;;11.35;4.70;;;;;;;9.49;73.44;102274.06;6072394;28;20028;-72
2023/04/18 09:03:02;;;;;;;;;;;;;;;10.09;74.62;102303.56;6073389;28;20026;-70
2023/04/18 09:06:08;;;;;;;11.25;5.22;;;;;;;9.65;74.66;102292.47;6070913;28;20382;-69
2023/04/18 09:09:05;;;;;;;9.77;4.93;;;;;;;9.68;75.28;102293.09;6071680;28;20132;-72
2023/04/18 09:12:08;;;;;;;10.10;4.65;;;;;;;9.92;75.19;102280.03;6072260;28;20449;-71
2023/04/18 09:15:14;;;;;;;10.23;4.53;;;;;;;10.14;74.47;102299.69;6075270;28;20041;-73
2023/04/18 09:18:09;;;;;;;12.75;5.25;;;;;;;9.89;72.90;102294.31;6077726;28;20466;-72
2023/04/18 09:21:18;;;;;;;10.00;5.17;;;;;;;10.25;73.91;102306.91;6077078;28;20049;-71
2023/04/18 09:24:19;;;;;;;8.43;4.18;;;;;;;10.56;71.26;102301.22;6077057;28;20033;-72
2023/04/18 09:27:14;;;;;;;13.57;5.40;;;;;;;10.46;72.02;102317.88;6077087;28;20157;-71
2023/04/18 09:30:11;;;;;;;9.10;4.53;;;;;;;9.71;73.96;102307.94;6077260;28;20390;-72
2023/04/18 09:33:09;;;;;;;9.07;4.53;;;;;;;9.79;74.58;102300.34;6059050;28;20037;-73
2023/04/18 09:36:19;;;;;;;9.60;4.28;;;;;;;10.22;74.26;102312.44;6074331;28;20060;-73
2023/04/18 09:39:26;;;;;;;8.43;4.80;;;;;;;9.74;74.14;102303.28;6064484;28;20033;-72
2023/04/18 09:42:21;;;;;;;9.90;4.70;;;;;;;9.96;74.04;102302.72;6076921;28;20660;-71
2023/04/18 09:45:18;;;;;;;11.13;5.28;;;;;;;9.67;74.66;102317.91;6076668;28;20166;-70
2023/04/18 09:48:14;;;;;;;9.20;4.97;;;;;;;9.20;77.51;102313.03;6080613;28;20040;-71
2023/04/18 09:51:13;;;;;;;9.32;4.35;;;;;;;9.49;77.99;102304.06;6076025;28;20394;-71
2023/04/18 09:54:09;;;;;;;8.45;3.80;;;;;;;9.84;74.48;102304.38;6076054;28;20037;-71
2023/04/18 09:57:08;;;;;;;6.15;3.13;;;;;;;10.06;72.31;102317.03;6078010;28;20040;-70
2023/04/18 10:00:12;;;;;;;8.40;3.63;;;;;;;9.96;72.21;102310.66;6101541;28;20041;-70
2023/04/18 10:03:08;;;;;;;11.25;4.47;;;;;;;10.11;71.54;102307.81;6076178;28;20041;-72
2023/04/18 10:06:04;;;;;;;7.80;4.00;;;;;;;9.77;71.80;102302.25;6090707;28;20041;-70
2023/04/18 10:09:02;;;;;;;8.85;4.13;;;;;;;9.59;73.28;102315.72;6076585;28;20069;-70
2023/04/18 10:11:58;;;;;;;8.93;4.80;;;;;;;9.57;74.20;102320.28;6077531;28;20022;-72
2023/04/18 10:14:54;;;;;;;9.32;4.40;;;;;;;9.40;75.23;102309.94;6076359;28;20502;-72
2023/04/18 10:17:56;;;;;;;16.00;6.65;;;;;;;9.48;74.83;102310.28;6058910;28;20032;-71
2023/04/18 10:20:59;;;;;;;19.42;8.30;;;;;;;9.59;75.13;102309.63;6075560;28;20043;-70
2023/04/18 10:23:55;;;;;;;9.55;4.47;;;;;;;9.49;74.62;102309.34;6068702;28;20486;-71
2023/04/18 10:26:50;;;;;;;9.43;4.37;;;;;;;9.82;73.90;102313.38;6075001;28;20045;-71
2023/04/18 10:29:50;;;;;;;8.60;3.97;;;;;;;9.80;73.97;102302.03;6084705;28;20029;-71
2023/04/18 10:32:45;;;;;;;9.13;4.13;;;;;;;9.59;72.91;102302.50;6080747;28;20084;-70
2023/04/18 10:36:15;;;;;;;6.70;3.73;;;;;;;9.74;73.11;102291.84;6075724;28;20078;-70
2023/04/18 10:39:21;;;;;;;6.65;3.67;;;;;;;10.07;70.24;102310.78;6075834;28;20022;-71
2023/04/18 10:42:17;;;;;;;8.70;4.05;;;;;;;10.03;71.11;102315.44;6075570;28;20451;-73
2023/04/18 10:45:22;;;;;;;7.57;3.67;;;;;;;9.90;70.70;102311.06;6074980;28;20037;-72
2023/04/18 10:48:26;;;;;;;11.32;4.57;;;;;;;9.82;72.17;102316.03;6079036;28;20041;-72
2023/04/18 10:51:21;;;;;;;9.23;4.43;;;;;;;10.11;71.69;102299.00;6076995;28;20041;-69
2023/04/18 10:54:57;;;;;;;11.33;4.33;;;;;;;10.40;71.16;102308.53;6074881;28;20072;-70
2023/04/18 10:57:55;;;;;;;7.85;3.58;;;;;;;10.50;70.13;102298.13;6057676;28;20474;-70
2023/04/18 11:00:50;;;;;;;9.35;4.30;;;;;;;10.41;69.28;102312.88;6057603;28;20033;-71
2023/04/18 11:03:45;;;;;;;8.98;4.70;;;;;;;10.33;68.97;102301.94;6075038;28;20060;-71
2023/04/18 11:06:49;;;;;;;7.90;3.97;;;;;;;10.49;69.24;102301.75;6062671;28;20403;-71
2023/04/18 11:09:52;;;;;;;11.43;4.35;;;;;;;10.52;68.60;102296.22;6074806;28;20112;-70
2023/04/18 11:12:47;;;;;;;9.20;4.20;;;;;;;10.40;69.25;102308.53;6080753;28;20033;-71
2023/04/18 11:15:42;;;;;;;9.40;4.47;;;;;;;10.29;68.78;102305.78;6079964;28;20048;-71
2023/04/18 11:18:39;;;;;;;7.37;4.03;;;;;;;10.17;69.97;102296.00;6074688;28;20501;-72
2023/04/18 11:21:35;;;;;;;7.75;3.80;;;;;;;10.21;69.84;102291.34;6074614;28;20474;-72
2023/04/18 11:24:30;;;;;;;7.63;4.20;;;;;;;10.22;68.78;102291.22;6073633;28;20033;-70
2023/04/18 11:27:25;;;;;;;7.23;4.10;;;;;;;10.22;69.19;102304.47;6075059;28;20037;-70
2023/04/18 11:30:21;;;;;;;7.57;4.00;;;;;;;10.23;68.70;102311.47;6074171;28;20288;-71
2023/04/18 11:33:16;;;;;;;9.10;3.87;;;;;;;9.91;69.81;102294.22;6074895;28;20040;-70
2023/04/18 11:36:13;;;;;;;8.87;4.63;;;;;;;10.12;69.34;102292.78;6074930;28;20474;-70
2023/04/18 11:39:09;;;;;;;7.97;4.10;;;;;;;10.26;70.49;102289.22;6075006;28;20036;-72
2023/04/18 11:42:04;;;;;;;16.48;7.03;;;;;;;10.54;68.81;102284.56;6073442;28;20041;-71
2023/04/18 11:45:00;;;;;;;19.55;8.65;;;;;;;10.36;68.08;102274.34;6073703;28;20029;-71
2023/04/18 11:47:57;;;;;;;8.38;3.83;;;;;;;10.29;67.58;102303.13;6074236;28;20037;-70
2023/04/18 11:50:56;;;;;;;6.72;3.75;;;;;;;10.31;68.66;102309.16;6064607;28;20045;-72
2023/04/18 11:53:51;;;;;;;9.70;5.25;;;;;;;10.44;66.93;102288.78;6072228;28;20033;-71
2023/04/18 11:56:49;;;;;;;7.50;3.80;;;;;;;10.50;66.84;102287.50;6072724;28;20037;-71
2023/04/18 11:59:51;;;;;;;8.25;4.25;;;;;;;10.66;67.45;102299.59;6073993;28;20022;-73
2023/04/18 12:02:48;;;;;;;7.63;4.22;;;;;;;10.84;65.02;102293.97;6073471;28;20382;-72
2023/04/18 12:05:44;;;;;;;7.50;4.07;;;;;;;10.75;67.25;102309.59;6054931;28;20065;-71
2023/04/18 12:08:42;;;;;;;7.80;4.05;;;;;;;10.83;66.99;102297.56;6074221;28;20108;-70
2023/04/18 12:11:40;;;;;;;9.43;3.85;;;;;;;10.82;66.17;102303.84;6073623;28;20103;-72
2023/04/18 12:14:35;;;;;;;9.30;4.18;;;;;;;10.71;66.15;102313.38;6079167;28;20037;-72
2023/04/18 12:17:30;;;;;;;6.83;3.50;;;;;;;10.62;66.53;102307.91;6073235;28;20102;-71
2023/04/18 12:20:50;;;;;;;7.15;3.53;;;;;;;10.90;65.80;102296.19;6088286;28;20428;-73
2023/04/18 12:23:46;;;;;;;8.32;3.55;;;;;;;11.05;64.56;102293.28;6087349;28;20037;-71
2023/04/18 12:26:45;;;;;;;6.70;3.50;;;;;;;11.64;64.59;102288.91;6095981;28;20042;-71
2023/04/18 12:29:40;;;;;;;10.95;3.80;;;;;;;12.07;63.61;102291.00;6073213;28;20040;-73
2023/04/18 12:32:35;;;;;;;10.83;4.80;;;;;;;12.32;61.21;102277.53;6073743;28;20033;-71
2023/04/18 12:35:31;;;;;;;6.90;3.30;;;;;;;12.63;62.45;102274.19;6072019;28;20037;-72
2023/04/18 12:38:27;;;;;;;8.15;3.92;;;;;;;12.22;61.48;102269.41;6075071;28;20399;-71
2023/04/18 12:41:22;;;;;;;7.60;4.18;;;;;;;12.14;62.98;102270.97;6073318;28;20387;-71
2023/04/18 12:44:17;;;;;;;10.63;4.50;;;;;;;12.10;62.65;102274.81;6076738;28;20508;-72
2023/04/18 12:47:12;;;;;;;7.93;3.90;;;;;;;12.34;62.48;102278.25;6073403;28;20037;-71
2023/04/18 12:50:09;;;;;;;8.40;4.73;;;;;;;12.65;61.22;102282.03;6075116;28;20041;-71
2023/04/18 12:53:05;;;;;;;7.32;3.97;;;;;;;12.21;59.90;102259.75;6073379;28;20029;-74
2023/04/18 12:56:01;;;;;;;7.65;4.38;;;;;;;11.89;62.31;102277.31;6072163;28;20036;-71
2023/04/18 12:58:56;;;;;;;7.82;4.20;;;;;;;12.02;62.82;102278.06;6055501;28;20513;-73
2023/04/18 13:01:51;;;;;;;7.80;3.57;;;;;;;12.41;61.79;102276.81;6072428;28;20783;-72
2023/04/18 13:04:48;;;;;;;8.70;4.03;;;;;;;12.47;61.96;102260.38;6072647;28;20029;-72
2023/04/18 13:07:45;;;;;;;11.48;4.43;;;;;;;12.76;59.98;102258.06;6073293;28;20478;-72
2023/04/18 13:10:40;;;;;;;7.35;3.88;;;;;;;12.47;61.33;102247.06;6072960;28;20483;-74
2023/04/18 13:13:35;;;;;;;7.20;3.57;;;;;;;12.70;59.40;102259.41;6072508;28;20037;-73
2023/04/18 13:16:30;;;;;;;8.20;4.20;;;;;;;12.42;61.61;102254.53;6080658;28;20056;-73
2023/04/18 13:19:26;;;;;;;7.50;4.20;;;;;;;12.88;59.70;102263.25;6072629;28;20552;-73
2023/04/18 13:22:21;;;;;;;7.30;3.47;;;;;;;12.69;60.93;102263.03;6073217;28;20268;-73
2023/04/18 13:25:16;;;;;;;7.37;3.83;;;;;;;12.84;60.08;102251.16;6070871;28;20383;-74
2023/04/18 13:28:12;;;;;;;6.47;4.03;;;;;;;12.63;61.09;102257.34;6078640;28;20025;-73
2023/04/18 13:31:07;;;;;;;7.77;3.33;;;;;;;12.65;61.64;102272.22;6072666;28;20466;-72
2023/04/18 13:34:02;;;;;;;7.53;3.50;;;;;;;13.11;61.03;102245.47;6072158;28;20026;-72
2023/04/18 13:36:57;;;;;;;8.23;4.10;;;;;;;13.28;59.67;102244.09;6072943;28;20084;-73